sensor_id;sensor_type;location;lat;lon;timestamp;temperature;humidity
15926;DHT22;8062;53.882;10.642;2023-06-19T00:00:36;15.20;99.90
15926;DHT22;8062;53.882;10.642;2023-06-19T00:01:56;15.20;99.90
15926;DHT22;8062;53.882;10.642;2023-06-19T00:03:16;15.20;99.90
15926;DHT22;8062;53.882;10.642;2023-06-19T00:04:35;15.20;99.90
15926;DHT22;8062;53.882;10.642;2023-06-19T00:05:55;15.20;99.90
15926;DHT22;8062;53.882;10.642;2023-06-19T00:07:15;15.30;99.90
15926;DHT22;8062;53.882;10.642;2023-06-19T00:08:34;15.30;99.90
15926;DHT22;8062;53.882;10.642;2023-06-19T00:09:55;15.20;99.90
15926;DHT22;8062;53.882;10.642;2023-06-19T00:11:15;15.20;99.90
15926;DHT22;8062;53.882;10.642;2023-06-19T00:12:34;15.30;99.90
15926;DHT22;8062;53.882;10.642;2023-06-19T00:13:54;15.30;99.90
15926;DHT22;8062;53.882;10.642;2023-06-19T00:15:14;15.30;99.90
15926;DHT22;8062;53.882;10.642;2023-06-19T00:16:33;15.30;99.90
15926;DHT22;8062;53.882;10.642;2023-06-19T00:17:52;15.30;99.90
15926;DHT22;8062;53.882;10.642;2023-06-19T00:19:12;15.30;99.90
15926;DHT22;8062;53.882;10.642;2023-06-19T00:20:31;15.30;99.90
15926;DHT22;8062;53.882;10.642;2023-06-19T00:21:51;15.30;99.90
15926;DHT22;8062;53.882;10.642;2023-06-19T00:23:10;15.40;99.90
15926;DHT22;8062;53.882;10.642;2023-06-19T00:24:33;15.40;99.90
15926;DHT22;8062;53.882;10.642;2023-06-19T00:25:52;15.40;99.90
15926;DHT22;8062;53.882;10.642;2023-06-19T00:27:12;15.30;99.90
15926;DHT22;8062;53.882;10.642;2023-06-19T00:28:32;15.30;99.90
15926;DHT22;8062;53.882;10.642;2023-06-19T00:29:53;15.30;99.90
15926;DHT22;8062;53.882;10.642;2023-06-19T00:31:13;15.30;99.90
15926;DHT22;8062;53.882;10.642;2023-06-19T00:32:33;15.40;99.90
15926;DHT22;8062;53.882;10.642;2023-06-19T00:34:05;15.30;99.90
15926;DHT22;8062;53.882;10.642;2023-06-19T00:35:25;15.30;99.90
15926;DHT22;8062;53.882;10.642;2023-06-19T00:36:44;15.30;99.90
15926;DHT22;8062;53.882;10.642;2023-06-19T00:38:05;15.40;99.90
15926;DHT22;8062;53.882;10.642;2023-06-19T00:39:25;15.40;99.90
15926;DHT22;8062;53.882;10.642;2023-06-19T00:40:45;15.40;99.90
15926;DHT22;8062;53.882;10.642;2023-06-19T00:42:06;15.40;99.90
15926;DHT22;8062;53.882;10.642;2023-06-19T00:43:25;15.50;99.90
15926;DHT22;8062;53.882;10.642;2023-06-19T00:44:45;15.50;99.90
15926;DHT22;8062;53.882;10.642;2023-06-19T00:46:05;15.50;99.90
15926;DHT22;8062;53.882;10.642;2023-06-19T00:47:25;15.50;99.90
15926;DHT22;8062;53.882;10.642;2023-06-19T00:48:45;15.60;99.90
15926;DHT22;8062;53.882;10.642;2023-06-19T00:50:05;15.60;99.90
15926;DHT22;8062;53.882;10.642;2023-06-19T00:51:24;15.60;99.90
15926;DHT22;8062;53.882;10.642;2023-06-19T00:52:44;15.60;99.90
15926;DHT22;8062;53.882;10.642;2023-06-19T00:54:04;15.60;99.90
15926;DHT22;8062;53.882;10.642;2023-06-19T00:55:26;15.60;99.90
15926;DHT22;8062;53.882;10.642;2023-06-19T00:56:47;15.60;99.90
15926;DHT22;8062;53.882;10.642;2023-06-19T00:58:08;15.60;99.90
15926;DHT22;8062;53.882;10.642;2023-06-19T00:59:27;15.60;99.90
15926;DHT22;8062;53.882;10.642;2023-06-19T01:00:48;15.60;99.90
15926;DHT22;8062;53.882;10.642;2023-06-19T01:02:08;15.60;99.90
15926;DHT22;8062;53.882;10.642;2023-06-19T01:03:27;15.60;99.90
15926;DHT22;8062;53.882;10.642;2023-06-19T01:04:47;15.60;99.90
15926;DHT22;8062;53.882;10.642;2023-06-19T01:06:13;15.60;99.90
15926;DHT22;8062;53.882;10.642;2023-06-19T01:09:05;15.60;99.90
15926;DHT22;8062;53.882;10.642;2023-06-19T01:10:37;15.60;99.90
15926;DHT22;8062;53.882;10.642;2023-06-19T01:12:04;15.60;99.90
15926;DHT22;8062;53.882;10.642;2023-06-19T01:13:28;15.60;99.90
15926;DHT22;8062;53.882;10.642;2023-06-19T01:15:00;15.60;99.90
15926;DHT22;8062;53.882;10.642;2023-06-19T01:16:21;15.60;99.90
15926;DHT22;8062;53.882;10.642;2023-06-19T01:17:41;15.60;99.90
15926;DHT22;8062;53.882;10.642;2023-06-19T01:19:04;15.60;99.90
15926;DHT22;8062;53.882;10.642;2023-06-19T01:20:26;15.60;99.90
15926;DHT22;8062;53.882;10.642;2023-06-19T01:21:46;15.60;99.90
15926;DHT22;8062;53.882;10.642;2023-06-19T01:23:09;15.60;99.90
15926;DHT22;8062;53.882;10.642;2023-06-19T01:24:29;15.60;99.90
15926;DHT22;8062;53.882;10.642;2023-06-19T01:25:49;15.50;99.90
15926;DHT22;8062;53.882;10.642;2023-06-19T01:27:08;15.50;99.90
15926;DHT22;8062;53.882;10.642;2023-06-19T01:28:28;15.50;99.90
15926;DHT22;8062;53.882;10.642;2023-06-19T01:29:48;15.40;99.90
15926;DHT22;8062;53.882;10.642;2023-06-19T01:32:03;15.40;99.90
15926;DHT22;8062;53.882;10.642;2023-06-19T01:33:27;15.30;99.90
15926;DHT22;8062;53.882;10.642;2023-06-19T01:34:48;15.40;99.90
15926;DHT22;8062;53.882;10.642;2023-06-19T01:36:09;15.30;99.90
15926;DHT22;8062;53.882;10.642;2023-06-19T01:37:28;15.30;99.90
15926;DHT22;8062;53.882;10.642;2023-06-19T01:38:49;15.30;99.90
15926;DHT22;8062;53.882;10.642;2023-06-19T01:40:10;15.30;99.90
15926;DHT22;8062;53.882;10.642;2023-06-19T01:41:31;15.30;99.90
15926;DHT22;8062;53.882;10.642;2023-06-19T01:42:52;15.30;99.90
15926;DHT22;8062;53.882;10.642;2023-06-19T01:44:12;15.30;99.90
15926;DHT22;8062;53.882;10.642;2023-06-19T01:45:32;15.30;99.90
15926;DHT22;8062;53.882;10.642;2023-06-19T01:46:53;15.30;99.90
15926;DHT22;8062;53.882;10.642;2023-06-19T01:48:14;15.30;99.90
15926;DHT22;8062;53.882;10.642;2023-06-19T01:49:33;15.30;99.90
15926;DHT22;8062;53.882;10.642;2023-06-19T01:50:56;15.30;99.90
15926;DHT22;8062;53.882;10.642;2023-06-19T01:52:16;15.30;99.90
15926;DHT22;8062;53.882;10.642;2023-06-19T01:53:36;15.30;99.90
15926;DHT22;8062;53.882;10.642;2023-06-19T01:54:55;15.30;99.90
15926;DHT22;8062;53.882;10.642;2023-06-19T01:56:15;15.30;99.90
15926;DHT22;8062;53.882;10.642;2023-06-19T01:57:34;15.30;99.90
15926;DHT22;8062;53.882;10.642;2023-06-19T01:58:55;15.30;99.90
15926;DHT22;8062;53.882;10.642;2023-06-19T02:00:15;15.40;99.90
15926;DHT22;8062;53.882;10.642;2023-06-19T02:01:35;15.40;99.90
15926;DHT22;8062;53.882;10.642;2023-06-19T02:02:55;15.40;99.90
15926;DHT22;8062;53.882;10.642;2023-06-19T02:04:14;15.40;99.90
15926;DHT22;8062;53.882;10.642;2023-06-19T02:05:34;15.50;99.90
15926;DHT22;8062;53.882;10.642;2023-06-19T02:06:58;15.50;99.90
15926;DHT22;8062;53.882;10.642;2023-06-19T02:08:17;15.50;99.90
15926;DHT22;8062;53.882;10.642;2023-06-19T02:09:38;15.60;99.90
15926;DHT22;8062;53.882;10.642;2023-06-19T02:10:58;15.60;99.90
15926;DHT22;8062;53.882;10.642;2023-06-19T02:12:17;15.60;99.90
15926;DHT22;8062;53.882;10.642;2023-06-19T02:13:36;15.60;99.90
15926;DHT22;8062;53.882;10.642;2023-06-19T02:14:56;15.60;99.90
15926;DHT22;8062;53.882;10.642;2023-06-19T02:16:16;15.60;99.90
15926;DHT22;8062;53.882;10.642;2023-06-19T02:17:35;15.70;99.90
15926;DHT22;8062;53.882;10.642;2023-06-19T02:18:56;15.70;99.90
15926;DHT22;8062;53.882;10.642;2023-06-19T02:20:16;15.70;99.90
15926;DHT22;8062;53.882;10.642;2023-06-19T02:21:36;15.70;99.90
15926;DHT22;8062;53.882;10.642;2023-06-19T02:22:55;15.80;99.90
15926;DHT22;8062;53.882;10.642;2023-06-19T02:24:15;15.80;99.90
15926;DHT22;8062;53.882;10.642;2023-06-19T02:25:34;15.80;99.90
15926;DHT22;8062;53.882;10.642;2023-06-19T02:26:54;15.80;99.90
15926;DHT22;8062;53.882;10.642;2023-06-19T02:28:13;15.80;99.90
15926;DHT22;8062;53.882;10.642;2023-06-19T02:29:33;15.80;99.90
15926;DHT22;8062;53.882;10.642;2023-06-19T02:30:56;15.80;99.90
15926;DHT22;8062;53.882;10.642;2023-06-19T02:32:16;15.80;99.90
15926;DHT22;8062;53.882;10.642;2023-06-19T02:33:35;15.80;99.90
15926;DHT22;8062;53.882;10.642;2023-06-19T02:34:55;15.80;99.90
15926;DHT22;8062;53.882;10.642;2023-06-19T02:36:15;15.80;99.90
15926;DHT22;8062;53.882;10.642;2023-06-19T02:37:38;15.80;99.90
15926;DHT22;8062;53.882;10.642;2023-06-19T02:39:00;15.80;99.90
15926;DHT22;8062;53.882;10.642;2023-06-19T02:40:20;15.80;99.90
15926;DHT22;8062;53.882;10.642;2023-06-19T02:41:39;15.80;99.90
15926;DHT22;8062;53.882;10.642;2023-06-19T02:43:02;15.90;99.90
15926;DHT22;8062;53.882;10.642;2023-06-19T02:44:21;15.90;99.90
15926;DHT22;8062;53.882;10.642;2023-06-19T02:45:41;15.90;99.90
15926;DHT22;8062;53.882;10.642;2023-06-19T02:47:01;15.90;99.90
15926;DHT22;8062;53.882;10.642;2023-06-19T02:48:21;16.00;99.90
15926;DHT22;8062;53.882;10.642;2023-06-19T02:49:42;16.00;99.90
15926;DHT22;8062;53.882;10.642;2023-06-19T02:51:01;15.90;99.90
15926;DHT22;8062;53.882;10.642;2023-06-19T02:52:21;16.00;99.90
15926;DHT22;8062;53.882;10.642;2023-06-19T02:53:41;16.00;99.90
15926;DHT22;8062;53.882;10.642;2023-06-19T02:55:03;16.00;99.90
15926;DHT22;8062;53.882;10.642;2023-06-19T02:56:24;16.00;99.90
15926;DHT22;8062;53.882;10.642;2023-06-19T02:57:44;16.00;99.90
15926;DHT22;8062;53.882;10.642;2023-06-19T02:59:04;16.00;99.90
15926;DHT22;8062;53.882;10.642;2023-06-19T03:00:23;16.00;99.90
15926;DHT22;8062;53.882;10.642;2023-06-19T03:01:43;16.10;99.90
15926;DHT22;8062;53.882;10.642;2023-06-19T03:03:05;16.10;99.90
15926;DHT22;8062;53.882;10.642;2023-06-19T03:04:25;16.10;99.90
15926;DHT22;8062;53.882;10.642;2023-06-19T03:05:46;16.10;99.90
15926;DHT22;8062;53.882;10.642;2023-06-19T03:07:06;16.20;99.90
15926;DHT22;8062;53.882;10.642;2023-06-19T03:08:25;16.20;99.90
15926;DHT22;8062;53.882;10.642;2023-06-19T03:09:45;16.20;99.90
15926;DHT22;8062;53.882;10.642;2023-06-19T03:11:05;16.20;99.90
15926;DHT22;8062;53.882;10.642;2023-06-19T03:12:25;16.30;99.90
15926;DHT22;8062;53.882;10.642;2023-06-19T03:13:52;16.30;99.90
15926;DHT22;8062;53.882;10.642;2023-06-19T03:15:12;16.30;99.90
15926;DHT22;8062;53.882;10.642;2023-06-19T03:16:35;16.40;99.90
15926;DHT22;8062;53.882;10.642;2023-06-19T03:17:55;16.50;99.90
15926;DHT22;8062;53.882;10.642;2023-06-19T03:19:17;16.50;99.90
15926;DHT22;8062;53.882;10.642;2023-06-19T03:20:36;16.60;99.90
15926;DHT22;8062;53.882;10.642;2023-06-19T03:21:56;16.60;99.90
15926;DHT22;8062;53.882;10.642;2023-06-19T03:23:16;16.70;99.90
15926;DHT22;8062;53.882;10.642;2023-06-19T03:24:35;16.70;99.90
15926;DHT22;8062;53.882;10.642;2023-06-19T03:26:15;16.80;99.90
15926;DHT22;8062;53.882;10.642;2023-06-19T03:27:35;16.80;99.90
15926;DHT22;8062;53.882;10.642;2023-06-19T03:28:55;16.80;99.90
15926;DHT22;8062;53.882;10.642;2023-06-19T03:30:18;16.90;99.90
15926;DHT22;8062;53.882;10.642;2023-06-19T03:31:39;16.90;99.90
15926;DHT22;8062;53.882;10.642;2023-06-19T03:33:01;16.90;99.90
15926;DHT22;8062;53.882;10.642;2023-06-19T03:34:35;16.90;99.90
15926;DHT22;8062;53.882;10.642;2023-06-19T03:35:58;16.90;99.90
15926;DHT22;8062;53.882;10.642;2023-06-19T03:37:38;17.00;99.90
15926;DHT22;8062;53.882;10.642;2023-06-19T03:38:57;17.00;99.90
15926;DHT22;8062;53.882;10.642;2023-06-19T03:40:20;17.00;99.90
15926;DHT22;8062;53.882;10.642;2023-06-19T03:41:42;17.00;99.90
15926;DHT22;8062;53.882;10.642;2023-06-19T03:43:02;17.10;99.90
15926;DHT22;8062;53.882;10.642;2023-06-19T03:44:26;17.10;99.90
15926;DHT22;8062;53.882;10.642;2023-06-19T03:45:45;17.10;99.90
15926;DHT22;8062;53.882;10.642;2023-06-19T03:47:05;17.20;99.90
15926;DHT22;8062;53.882;10.642;2023-06-19T03:48:25;17.10;99.90
15926;DHT22;8062;53.882;10.642;2023-06-19T03:49:44;17.20;99.90
15926;DHT22;8062;53.882;10.642;2023-06-19T03:51:04;17.20;99.90
15926;DHT22;8062;53.882;10.642;2023-06-19T03:52:23;17.20;99.90
15926;DHT22;8062;53.882;10.642;2023-06-19T03:53:43;17.20;99.90
15926;DHT22;8062;53.882;10.642;2023-06-19T03:55:03;17.20;99.90
15926;DHT22;8062;53.882;10.642;2023-06-19T03:56:23;17.20;99.90
15926;DHT22;8062;53.882;10.642;2023-06-19T03:57:43;17.20;99.90
15926;DHT22;8062;53.882;10.642;2023-06-19T03:59:02;17.20;99.90
15926;DHT22;8062;53.882;10.642;2023-06-19T04:00:22;17.20;99.90
15926;DHT22;8062;53.882;10.642;2023-06-19T04:01:43;17.20;99.90
15926;DHT22;8062;53.882;10.642;2023-06-19T04:03:02;17.20;99.90
15926;DHT22;8062;53.882;10.642;2023-06-19T04:04:22;17.20;99.90
15926;DHT22;8062;53.882;10.642;2023-06-19T04:05:42;17.20;99.90
15926;DHT22;8062;53.882;10.642;2023-06-19T04:07:01;17.20;99.90
15926;DHT22;8062;53.882;10.642;2023-06-19T04:08:21;17.20;99.90
15926;DHT22;8062;53.882;10.642;2023-06-19T04:09:40;17.30;99.90
15926;DHT22;8062;53.882;10.642;2023-06-19T04:11:00;17.30;99.90
15926;DHT22;8062;53.882;10.642;2023-06-19T04:12:21;17.30;99.90
15926;DHT22;8062;53.882;10.642;2023-06-19T04:13:41;17.40;99.90
15926;DHT22;8062;53.882;10.642;2023-06-19T04:15:00;17.50;99.90
15926;DHT22;8062;53.882;10.642;2023-06-19T04:16:19;17.50;99.90
15926;DHT22;8062;53.882;10.642;2023-06-19T04:17:39;17.50;99.90
15926;DHT22;8062;53.882;10.642;2023-06-19T04:18:58;17.60;99.90
15926;DHT22;8062;53.882;10.642;2023-06-19T04:20:18;17.60;99.90
15926;DHT22;8062;53.882;10.642;2023-06-19T04:21:40;17.60;99.90
15926;DHT22;8062;53.882;10.642;2023-06-19T04:23:00;17.60;99.90
15926;DHT22;8062;53.882;10.642;2023-06-19T04:24:20;17.60;99.90
15926;DHT22;8062;53.882;10.642;2023-06-19T04:25:40;17.70;99.90
15926;DHT22;8062;53.882;10.642;2023-06-19T04:26:59;17.60;99.90
15926;DHT22;8062;53.882;10.642;2023-06-19T04:28:19;17.70;99.90
15926;DHT22;8062;53.882;10.642;2023-06-19T04:29:38;17.70;99.90
15926;DHT22;8062;53.882;10.642;2023-06-19T04:30:58;17.70;99.90
15926;DHT22;8062;53.882;10.642;2023-06-19T04:32:20;17.80;99.90
15926;DHT22;8062;53.882;10.642;2023-06-19T04:33:40;17.80;99.90
15926;DHT22;8062;53.882;10.642;2023-06-19T04:35:01;17.80;99.90
15926;DHT22;8062;53.882;10.642;2023-06-19T04:36:21;17.90;99.90
15926;DHT22;8062;53.882;10.642;2023-06-19T04:37:40;17.90;99.90
15926;DHT22;8062;53.882;10.642;2023-06-19T04:39:00;18.00;99.90
15926;DHT22;8062;53.882;10.642;2023-06-19T04:40:20;18.00;99.90
15926;DHT22;8062;53.882;10.642;2023-06-19T04:41:40;18.10;99.90
15926;DHT22;8062;53.882;10.642;2023-06-19T04:43:01;18.20;99.90
15926;DHT22;8062;53.882;10.642;2023-06-19T04:44:21;18.20;99.90
15926;DHT22;8062;53.882;10.642;2023-06-19T04:45:41;18.20;99.90
15926;DHT22;8062;53.882;10.642;2023-06-19T04:47:01;18.20;99.90
15926;DHT22;8062;53.882;10.642;2023-06-19T04:48:21;18.20;99.90
15926;DHT22;8062;53.882;10.642;2023-06-19T04:49:45;18.20;99.90
15926;DHT22;8062;53.882;10.642;2023-06-19T04:51:04;18.20;99.90
15926;DHT22;8062;53.882;10.642;2023-06-19T04:52:24;18.30;99.90
15926;DHT22;8062;53.882;10.642;2023-06-19T04:53:43;18.30;99.90
15926;DHT22;8062;53.882;10.642;2023-06-19T04:55:07;18.30;99.90
15926;DHT22;8062;53.882;10.642;2023-06-19T04:56:30;18.30;99.90
15926;DHT22;8062;53.882;10.642;2023-06-19T04:57:49;18.30;99.90
15926;DHT22;8062;53.882;10.642;2023-06-19T04:59:09;18.30;99.90
15926;DHT22;8062;53.882;10.642;2023-06-19T05:00:28;18.40;99.90
15926;DHT22;8062;53.882;10.642;2023-06-19T05:01:48;18.40;99.90
15926;DHT22;8062;53.882;10.642;2023-06-19T05:03:07;18.40;99.90
15926;DHT22;8062;53.882;10.642;2023-06-19T05:04:27;18.40;99.90
15926;DHT22;8062;53.882;10.642;2023-06-19T05:05:46;18.50;99.90
15926;DHT22;8062;53.882;10.642;2023-06-19T05:07:06;18.50;99.90
15926;DHT22;8062;53.882;10.642;2023-06-19T05:08:25;18.50;99.90
15926;DHT22;8062;53.882;10.642;2023-06-19T05:09:45;18.40;99.90
15926;DHT22;8062;53.882;10.642;2023-06-19T05:11:05;18.40;99.90
15926;DHT22;8062;53.882;10.642;2023-06-19T05:12:24;18.40;99.90
15926;DHT22;8062;53.882;10.642;2023-06-19T05:13:44;18.40;99.90
15926;DHT22;8062;53.882;10.642;2023-06-19T05:15:03;18.40;99.90
15926;DHT22;8062;53.882;10.642;2023-06-19T05:16:23;18.40;99.90
15926;DHT22;8062;53.882;10.642;2023-06-19T05:17:43;18.40;99.90
15926;DHT22;8062;53.882;10.642;2023-06-19T05:19:05;18.50;99.90
15926;DHT22;8062;53.882;10.642;2023-06-19T05:20:25;18.40;99.90
15926;DHT22;8062;53.882;10.642;2023-06-19T05:21:44;18.40;99.90
15926;DHT22;8062;53.882;10.642;2023-06-19T05:23:04;18.50;99.90
15926;DHT22;8062;53.882;10.642;2023-06-19T05:24:24;18.50;99.90
15926;DHT22;8062;53.882;10.642;2023-06-19T05:25:43;18.50;99.90
15926;DHT22;8062;53.882;10.642;2023-06-19T05:27:03;18.50;99.90
15926;DHT22;8062;53.882;10.642;2023-06-19T05:28:22;18.50;99.90
15926;DHT22;8062;53.882;10.642;2023-06-19T05:29:42;18.60;99.90
15926;DHT22;8062;53.882;10.642;2023-06-19T05:31:01;18.60;99.90
15926;DHT22;8062;53.882;10.642;2023-06-19T05:32:21;18.70;99.90
15926;DHT22;8062;53.882;10.642;2023-06-19T05:33:41;18.70;99.90
15926;DHT22;8062;53.882;10.642;2023-06-19T05:35:01;18.70;99.90
15926;DHT22;8062;53.882;10.642;2023-06-19T05:36:20;18.70;99.90
15926;DHT22;8062;53.882;10.642;2023-06-19T05:37:39;18.80;99.90
15926;DHT22;8062;53.882;10.642;2023-06-19T05:39:02;18.70;99.90
15926;DHT22;8062;53.882;10.642;2023-06-19T05:40:22;18.70;99.90
15926;DHT22;8062;53.882;10.642;2023-06-19T05:41:41;18.70;99.90
15926;DHT22;8062;53.882;10.642;2023-06-19T05:43:01;18.70;99.90
15926;DHT22;8062;53.882;10.642;2023-06-19T05:44:20;18.70;99.90
15926;DHT22;8062;53.882;10.642;2023-06-19T05:45:40;18.70;99.90
15926;DHT22;8062;53.882;10.642;2023-06-19T05:46:59;18.70;99.90
15926;DHT22;8062;53.882;10.642;2023-06-19T05:48:18;18.70;99.90
15926;DHT22;8062;53.882;10.642;2023-06-19T05:49:38;18.70;99.90
15926;DHT22;8062;53.882;10.642;2023-06-19T05:51:00;18.80;99.90
15926;DHT22;8062;53.882;10.642;2023-06-19T05:52:20;18.70;99.90
15926;DHT22;8062;53.882;10.642;2023-06-19T05:53:40;18.70;99.90
15926;DHT22;8062;53.882;10.642;2023-06-19T05:54:59;18.70;99.90
15926;DHT22;8062;53.882;10.642;2023-06-19T05:56:19;18.70;99.90
15926;DHT22;8062;53.882;10.642;2023-06-19T05:57:39;18.60;99.90
15926;DHT22;8062;53.882;10.642;2023-06-19T05:59:02;18.70;99.90
15926;DHT22;8062;53.882;10.642;2023-06-19T06:00:21;18.70;99.90
15926;DHT22;8062;53.882;10.642;2023-06-19T06:01:41;18.60;99.90
15926;DHT22;8062;53.882;10.642;2023-06-19T06:03:01;18.70;99.90
15926;DHT22;8062;53.882;10.642;2023-06-19T06:04:21;18.70;99.90
15926;DHT22;8062;53.882;10.642;2023-06-19T06:05:41;18.70;99.90
15926;DHT22;8062;53.882;10.642;2023-06-19T06:07:01;18.70;99.90
15926;DHT22;8062;53.882;10.642;2023-06-19T06:08:20;18.70;99.90
15926;DHT22;8062;53.882;10.642;2023-06-19T06:09:40;18.70;99.90
15926;DHT22;8062;53.882;10.642;2023-06-19T06:10:59;18.70;99.90
15926;DHT22;8062;53.882;10.642;2023-06-19T06:12:18;18.70;99.90
15926;DHT22;8062;53.882;10.642;2023-06-19T06:13:38;18.70;99.90
15926;DHT22;8062;53.882;10.642;2023-06-19T06:14:58;18.70;99.90
15926;DHT22;8062;53.882;10.642;2023-06-19T06:16:18;18.70;99.90
15926;DHT22;8062;53.882;10.642;2023-06-19T06:17:37;18.70;99.90
15926;DHT22;8062;53.882;10.642;2023-06-19T06:18:56;18.80;99.90
15926;DHT22;8062;53.882;10.642;2023-06-19T06:20:16;18.80;99.90
15926;DHT22;8062;53.882;10.642;2023-06-19T06:21:35;18.80;99.90
15926;DHT22;8062;53.882;10.642;2023-06-19T06:22:55;18.70;99.90
15926;DHT22;8062;53.882;10.642;2023-06-19T06:24:14;18.70;99.90
15926;DHT22;8062;53.882;10.642;2023-06-19T06:25:34;18.70;99.90
15926;DHT22;8062;53.882;10.642;2023-06-19T06:26:53;18.70;99.90
15926;DHT22;8062;53.882;10.642;2023-06-19T06:28:13;18.70;99.90
15926;DHT22;8062;53.882;10.642;2023-06-19T06:29:34;18.70;99.90
15926;DHT22;8062;53.882;10.642;2023-06-19T06:30:54;18.70;99.90
15926;DHT22;8062;53.882;10.642;2023-06-19T06:32:13;18.70;99.90
15926;DHT22;8062;53.882;10.642;2023-06-19T06:33:33;18.70;99.90
15926;DHT22;8062;53.882;10.642;2023-06-19T06:34:52;18.70;99.90
15926;DHT22;8062;53.882;10.642;2023-06-19T06:36:14;18.80;99.90
15926;DHT22;8062;53.882;10.642;2023-06-19T06:37:34;18.80;99.90
15926;DHT22;8062;53.882;10.642;2023-06-19T06:38:54;18.80;99.90
15926;DHT22;8062;53.882;10.642;2023-06-19T06:40:14;18.80;99.90
15926;DHT22;8062;53.882;10.642;2023-06-19T06:41:34;18.80;99.90
15926;DHT22;8062;53.882;10.642;2023-06-19T06:42:53;18.80;99.90
15926;DHT22;8062;53.882;10.642;2023-06-19T06:44:13;18.80;99.90
15926;DHT22;8062;53.882;10.642;2023-06-19T06:45:32;18.80;99.90
15926;DHT22;8062;53.882;10.642;2023-06-19T06:46:52;18.80;99.90
15926;DHT22;8062;53.882;10.642;2023-06-19T06:48:11;18.80;99.90
15926;DHT22;8062;53.882;10.642;2023-06-19T06:49:31;18.70;99.90
15926;DHT22;8062;53.882;10.642;2023-06-19T06:50:50;18.80;99.90
15926;DHT22;8062;53.882;10.642;2023-06-19T06:52:09;18.80;99.90
15926;DHT22;8062;53.882;10.642;2023-06-19T06:53:29;18.80;99.90
15926;DHT22;8062;53.882;10.642;2023-06-19T06:54:51;18.80;99.90
15926;DHT22;8062;53.882;10.642;2023-06-19T06:56:10;18.90;99.90
15926;DHT22;8062;53.882;10.642;2023-06-19T06:57:30;18.80;99.90
15926;DHT22;8062;53.882;10.642;2023-06-19T06:58:49;18.90;99.90
15926;DHT22;8062;53.882;10.642;2023-06-19T07:00:09;18.90;99.90
15926;DHT22;8062;53.882;10.642;2023-06-19T07:01:30;18.90;99.90
15926;DHT22;8062;53.882;10.642;2023-06-19T07:02:50;18.90;99.90
15926;DHT22;8062;53.882;10.642;2023-06-19T07:04:10;18.90;99.90
15926;DHT22;8062;53.882;10.642;2023-06-19T07:05:30;18.90;99.90
15926;DHT22;8062;53.882;10.642;2023-06-19T07:06:49;18.90;99.90
15926;DHT22;8062;53.882;10.642;2023-06-19T07:08:09;18.90;99.90
15926;DHT22;8062;53.882;10.642;2023-06-19T07:09:29;18.90;99.90
15926;DHT22;8062;53.882;10.642;2023-06-19T07:10:48;18.90;99.90
15926;DHT22;8062;53.882;10.642;2023-06-19T07:12:08;19.00;99.90
15926;DHT22;8062;53.882;10.642;2023-06-19T07:13:27;19.00;99.90
15926;DHT22;8062;53.882;10.642;2023-06-19T07:14:47;19.00;99.90
15926;DHT22;8062;53.882;10.642;2023-06-19T07:16:07;19.00;99.90
15926;DHT22;8062;53.882;10.642;2023-06-19T07:17:26;19.00;99.90
15926;DHT22;8062;53.882;10.642;2023-06-19T07:18:46;19.00;99.90
15926;DHT22;8062;53.882;10.642;2023-06-19T07:20:06;19.10;99.90
15926;DHT22;8062;53.882;10.642;2023-06-19T07:21:27;19.10;99.90
15926;DHT22;8062;53.882;10.642;2023-06-19T07:22:47;19.10;99.90
15926;DHT22;8062;53.882;10.642;2023-06-19T07:24:07;19.10;99.90
15926;DHT22;8062;53.882;10.642;2023-06-19T07:25:26;19.20;99.90
15926;DHT22;8062;53.882;10.642;2023-06-19T07:26:46;19.30;99.90
15926;DHT22;8062;53.882;10.642;2023-06-19T07:28:06;19.30;99.90
15926;DHT22;8062;53.882;10.642;2023-06-19T07:29:26;19.30;99.90
15926;DHT22;8062;53.882;10.642;2023-06-19T07:30:46;19.30;99.90
15926;DHT22;8062;53.882;10.642;2023-06-19T07:32:07;19.40;99.90
15926;DHT22;8062;53.882;10.642;2023-06-19T07:33:27;19.40;99.90
15926;DHT22;8062;53.882;10.642;2023-06-19T07:34:46;19.40;99.90
15926;DHT22;8062;53.882;10.642;2023-06-19T07:36:05;19.40;99.90
15926;DHT22;8062;53.882;10.642;2023-06-19T07:37:25;19.30;99.90
15926;DHT22;8062;53.882;10.642;2023-06-19T07:38:46;19.30;99.90
15926;DHT22;8062;53.882;10.642;2023-06-19T07:40:05;19.30;99.90
15926;DHT22;8062;53.882;10.642;2023-06-19T07:41:25;19.30;99.90
15926;DHT22;8062;53.882;10.642;2023-06-19T07:42:44;19.30;99.90
15926;DHT22;8062;53.882;10.642;2023-06-19T07:44:04;19.30;99.90
15926;DHT22;8062;53.882;10.642;2023-06-19T07:45:23;19.20;99.90
15926;DHT22;8062;53.882;10.642;2023-06-19T07:46:43;19.20;99.90
15926;DHT22;8062;53.882;10.642;2023-06-19T07:48:02;19.20;99.90
15926;DHT22;8062;53.882;10.642;2023-06-19T07:49:22;19.10;99.90
15926;DHT22;8062;53.882;10.642;2023-06-19T07:50:41;19.10;99.90
15926;DHT22;8062;53.882;10.642;2023-06-19T07:52:02;19.10;99.90
15926;DHT22;8062;53.882;10.642;2023-06-19T07:53:22;19.10;99.90
15926;DHT22;8062;53.882;10.642;2023-06-19T07:54:50;19.20;99.90
15926;DHT22;8062;53.882;10.642;2023-06-19T07:56:10;19.20;99.90
15926;DHT22;8062;53.882;10.642;2023-06-19T07:57:30;19.20;99.90
15926;DHT22;8062;53.882;10.642;2023-06-19T07:58:49;19.20;99.90
15926;DHT22;8062;53.882;10.642;2023-06-19T08:00:09;19.20;99.90
15926;DHT22;8062;53.882;10.642;2023-06-19T08:01:32;19.20;99.90
15926;DHT22;8062;53.882;10.642;2023-06-19T08:02:52;19.20;99.90
15926;DHT22;8062;53.882;10.642;2023-06-19T08:04:11;19.20;99.90
15926;DHT22;8062;53.882;10.642;2023-06-19T08:05:31;19.30;99.90
15926;DHT22;8062;53.882;10.642;2023-06-19T08:06:50;19.40;99.90
15926;DHT22;8062;53.882;10.642;2023-06-19T08:08:12;19.40;99.90
15926;DHT22;8062;53.882;10.642;2023-06-19T08:09:32;19.50;99.90
15926;DHT22;8062;53.882;10.642;2023-06-19T08:10:52;19.60;99.90
15926;DHT22;8062;53.882;10.642;2023-06-19T08:12:11;19.70;99.90
15926;DHT22;8062;53.882;10.642;2023-06-19T08:13:31;19.80;99.90
15926;DHT22;8062;53.882;10.642;2023-06-19T08:14:50;19.90;99.90
15926;DHT22;8062;53.882;10.642;2023-06-19T08:16:10;19.90;99.90
15926;DHT22;8062;53.882;10.642;2023-06-19T08:17:29;20.00;99.90
15926;DHT22;8062;53.882;10.642;2023-06-19T08:18:49;20.10;99.90
15926;DHT22;8062;53.882;10.642;2023-06-19T08:20:09;20.20;99.90
15926;DHT22;8062;53.882;10.642;2023-06-19T08:21:28;20.40;99.90
15926;DHT22;8062;53.882;10.642;2023-06-19T08:22:48;20.50;99.90
15926;DHT22;8062;53.882;10.642;2023-06-19T08:24:08;20.50;99.90
15926;DHT22;8062;53.882;10.642;2023-06-19T08:25:27;20.50;99.90
15926;DHT22;8062;53.882;10.642;2023-06-19T08:26:47;20.60;99.90
15926;DHT22;8062;53.882;10.642;2023-06-19T08:28:10;20.80;99.90
15926;DHT22;8062;53.882;10.642;2023-06-19T08:29:29;20.80;99.90